Flight Track Log - Related Links

Times and Time Zones

All times are in EDT time to prevent confusion due to time zone crossing. See the UAL3740 flight status page for this flight to view local times or setup timezone preferences in your user account.

Time Position Orientation Groundspeed Altitude Reporting Facility
EDT Latitude Longitude Course Direction KTS MPH feet Rate Location/Type
Fri 10:14:08 AM 41.7333 -71.4386 316° Northwest 142 163 800  Level Boston Center
Fri 10:15:32 AM 41.7817 -71.5019 316° Northwest 176 203 4,200 2,333 Climbing Boston Center
Fri 10:16:32 AM 41.8197 -71.5597 311° West 218 251 6,400 2,600 Climbing Boston Center
Fri 10:17:32 AM 41.8600 -71.6372 305° West 245 282 9,400 2,600 Climbing Boston Center
Fri 10:18:32 AM 41.9022 -71.7289 302° West 255 293 11,600 2,150 Climbing Boston Center
Fri 10:19:32 AM 41.9339 -71.8206 295° West 280 322 13,700 2,200 Climbing Boston Center
Fri 10:20:32 AM 41.9408 -71.9544 274° West 317 365 16,000 2,050 Climbing Boston Center
Fri 10:21:32 AM 41.9433 -72.0744 272° West 330 380 17,800 2,000 Climbing Boston Center
Fri 10:22:44 AM 41.9458 -72.1972 272° West 330 380 20,400 2,182 Climbing Boston Center
Fri 10:23:44 AM 41.9481 -72.3425 271° West 330 380 22,600 1,800 Climbing Boston Center
Fri 10:24:44 AM 41.9503 -72.4653 271° West 330 380 24,000 1,350 Climbing Boston Center
Fri 10:25:44 AM 41.9500 -72.5936 270° West 330 380 25,300 1,364 Climbing Boston Center
Fri 10:26:56 AM 41.9539 -72.7417 272° West 330 380 27,000 1,273 Climbing Boston Center
Fri 10:27:56 AM 41.9578 -72.8756 272° West 341 392 28,100 1,150 Climbing Boston Center
Fri 10:28:56 AM 41.9550 -73.0153 269° West 359 413 29,300 1,000 Climbing Boston Center
Fri 10:29:56 AM 41.9106 -73.1431 245° Southwest 374 430 30,100 800 Climbing Boston Center
Fri 10:30:56 AM 41.8408 -73.2622 232° Southwest 379 436 30,900 750 Climbing Boston Center
Fri 10:31:56 AM 41.7525 -73.3722 223° Southwest 408 470 31,600 395 Climbing Boston Center
Fri 10:33:43 AM 41.6058 -73.5456 221° Southwest 435 501 32,000 145 Climbing New York Center
Fri 10:34:42 AM 41.5158 -73.6581 223° Southwest 424 488 32,000  Level New York Center
Fri 10:35:43 AM 41.4256 -73.7675 222° Southwest 429 494 32,000  Level New York Center
Fri 10:36:44 AM 41.3333 -73.8711 220° Southwest 429 494 32,000  Level New York Center
Fri 10:37:41 AM 41.2428 -73.9831 223° Southwest 435 501 32,000  Level New York Center
Fri 10:38:43 AM 41.1525 -74.0917 222° Southwest 435 501 32,000  Level New York Center
Fri 10:39:42 AM 41.0842 -74.2175 234° Southwest 430 495 32,000  Level New York Center
Fri 10:40:42 AM 41.0197 -74.3517 238° Southwest 430 495 32,000 -1,091 Level New York Center
Fri 10:41:43 AM 40.9575 -74.4803 237° Southwest 430 495 29,800 -1,983 Descending New York Center
Fri 10:42:43 AM 40.8969 -74.6117 239° Southwest 425 489 28,000 -900 Descending New York Center
Fri 10:43:43 AM 40.8364 -74.7453 239° Southwest 425 489 28,000  Level New York Center
Fri 10:44:42 AM 40.7778 -74.8733 239° Southwest 419 482 28,000  Level New York Center
Fri 10:45:42 AM 40.7192 -75.0039 239° Southwest 419 482 28,000  Level New York Center
Fri 10:46:43 AM 40.6600 -75.1372 240° Southwest 414 476 28,000  Level New York Center
Fri 10:47:41 AM 40.5989 -75.2700 239° Southwest 414 476 28,000 -864 Level New York Center
Fri 10:48:41 AM 40.5397 -75.3972 239° Southwest 414 476 26,300 -1,835 Descending New York Center
Fri 10:49:42 AM 40.4850 -75.5164 239° Southwest 407 468 24,300 -1,983 Descending New York Center
Fri 10:50:42 AM 40.4322 -75.6353 240° Southwest 395 455 22,300 -1,983 Descending New York Center
Fri 10:51:43 AM 40.3772 -75.7542 239° Southwest 390 449 20,300 -1,160 Descending New York Center
Fri 10:52:41 AM 40.3225 -75.8644 237° Southwest 380 437 20,000 -153 Descending New York Center
Fri 10:53:41 AM 40.2700 -75.9694 237° Southwest 380 437 20,000  Level New York Center
Fri 10:54:42 AM 40.2169 -76.0850 239° Southwest 372 428 20,000  Level New York Center
Fri 10:55:42 AM 40.1658 -76.1981 239° Southwest 372 428 20,000 -198 Level New York Center
Fri 10:56:43 AM 40.1014 -76.3261 237° Southwest 372 428 19,600 -813 Descending New York Center
Fri 10:58:17 AM 40.0167 -76.5167 240° Southwest 380 437 17,900 -968 Descending Potomac TRACON
Fri 10:59:18 AM 39.9667 -76.6333 241° Southwest 371 427 17,100 -893 Descending Potomac TRACON
Fri 11:00:18 AM 39.9167 -76.7500 241° Southwest 370 426 16,100 -1,000 Descending Potomac TRACON
Fri 11:01:18 AM 39.8667 -76.8500 237° Southwest 334 384 15,100 -992 Descending Potomac TRACON
Fri 11:02:19 AM 39.8167 -76.9500 237° Southwest 328 377 14,100 -783 Descending Potomac TRACON
Fri 11:03:13 AM 39.7667 -77.0333 232° Southwest 321 369 13,600 -1,105 Descending Potomac TRACON
Fri 11:04:13 AM 39.7333 -77.1333 247° West 308 354 12,000 -1,500 Descending Potomac TRACON
Fri 11:05:13 AM 39.6833 -77.2167 232° Southwest 299 344 10,600 -1,252 Descending Potomac TRACON
Fri 11:06:08 AM 39.6333 -77.2833 226° Southwest 287 330 9,600 -1,158 Descending Potomac TRACON
Fri 11:07:07 AM 39.5500 -77.3000 189° South 293 337 8,400 -1,200 Descending Potomac TRACON
Fri 11:08:08 AM 39.4667 -77.3333 197° South 285 328 7,200 -694 Descending Potomac TRACON
Fri 11:09:08 AM 39.4000 -77.3667 201° Southwest 286 329 7,000 -700 Descending Potomac TRACON
Fri 11:10:08 AM 39.3167 -77.3667 180° South 287 330 5,800 -1,041 Descending Potomac TRACON
Fri 11:11:09 AM 39.2500 -77.3667 180° South 277 319 4,900 -843 Descending Potomac TRACON
Fri 11:12:09 AM 39.1667 -77.3500 171° South 274 315 4,100 -450 Descending Potomac TRACON
Fri 11:13:09 AM 39.0833 -77.3500 180° South 275 316 4,000 -50 Descending Potomac TRACON
Fri 11:14:09 AM 39.0167 -77.3500 180° South 276 318 4,000 -300 Level Potomac TRACON
Fri 11:15:09 AM 38.9333 -77.3667 189° South 273 314 3,400 -500 Descending Potomac TRACON
Fri 11:16:09 AM 38.8667 -77.3667 180° South 252 290 3,000 -496 Descending Potomac TRACON
Fri 11:17:10 AM 38.8167 -77.4000 207° Southwest 227 261 2,400 -545 Descending Potomac TRACON
Fri 11:18:10 AM 38.8500 -77.4333 322° Northwest 187 215 1,900 -700 Descending Potomac TRACON
Fri 11:19:10 AM 38.9000 -77.4333 360° North 140 161 1,000 -900 Descending Potomac TRACON
Fri 11:21:00 AM 38.9333 -77.4500 349° North  Level FlightAware Approximate

Login

Don't have an account? Register now (free) for customized features, flight alerts, and more!